Time;durP1;ratioP1;P1;durP2;ratioP2;P2;SDS_P1;SDS_P2;PMS_P1;PMS_P2;Temp;Humidity;BMP_temperature;BMP_pressure;BME280_temperature;BME280_humidity;BME280_pressure;Samples;Min_cycle;Max_cycle;Signal;HPM_P1;HPM_P2
2022/01/11 00:01:19;;;;;;;49.50;17.35;;;;;;;2.83;100.00;99129.47;5063088;28;20066;-53
2022/01/11 00:03:44;;;;;;;30.35;10.93;;;;;;;2.98;100.00;99130.44;5066190;28;20031;-53
2022/01/11 00:08:59;;;;;;;42.05;15.38;;;;;;;2.82;100.00;99125.16;5064078;28;20176;-55
2022/01/11 00:11:25;;;;;;;46.03;16.73;;;;;;;2.55;100.00;99142.97;5065503;28;20044;-53
2022/01/11 00:13:50;;;;;;;37.40;12.52;;;;;;;2.77;100.00;99131.97;5064734;28;20024;-55
2022/01/11 00:16:16;;;;;;;34.65;13.43;;;;;;;3.03;100.00;99134.78;5064882;28;20035;-54
2022/01/11 00:18:41;;;;;;;34.20;13.88;;;;;;;2.89;100.00;99137.25;5064318;28;20029;-54
2022/01/11 00:21:07;;;;;;;41.20;14.15;;;;;;;2.29;100.00;99146.97;5063635;28;20040;-53
2022/01/11 00:25:58;;;;;;;38.05;13.82;;;;;;;2.62;100.00;99147.31;5067901;28;20100;-53
2022/01/11 00:28:25;;;;;;;44.85;16.10;;;;;;;2.59;100.00;99148.16;5069053;28;20466;-54
2022/01/11 00:30:52;;;;;;;36.65;13.27;;;;;;;2.93;100.00;99151.03;5069591;28;20062;-53
2022/01/11 00:33:24;;;;;;;35.25;13.60;;;;;;;2.90;100.00;99148.41;5069664;28;20251;-55
2022/01/11 00:36:00;;;;;;;35.53;13.80;;;;;;;2.93;100.00;99157.91;5068099;28;20047;-54
2022/01/11 00:38:31;;;;;;;40.58;14.18;;;;;;;2.77;100.00;99162.06;5071177;28;20469;-53
2022/01/11 00:41:00;;;;;;;42.08;14.80;;;;;;;2.70;100.00;99167.16;5066742;28;20041;-54
2022/01/11 00:43:27;;;;;;;40.65;14.13;;;;;;;3.05;100.00;99157.97;5066606;28;20059;-53
2022/01/11 00:45:56;;;;;;;33.78;12.60;;;;;;;2.83;100.00;99175.88;5070146;28;20496;-53
2022/01/11 00:48:23;;;;;;;38.78;13.25;;;;;;;2.99;100.00;99168.25;5069545;28;20050;-53
2022/01/11 00:50:49;;;;;;;34.67;12.85;;;;;;;3.04;100.00;99172.59;5069806;28;20047;-54
2022/01/11 00:53:15;;;;;;;39.03;13.18;;;;;;;2.95;100.00;99181.97;5067938;28;20039;-55
2022/01/11 00:55:41;;;;;;;37.65;12.88;;;;;;;2.83;100.00;99173.28;5068448;28;20059;-53
2022/01/11 00:58:06;;;;;;;37.80;13.55;;;;;;;3.14;100.00;99165.78;5068561;28;20028;-54
2022/01/11 01:00:34;;;;;;;34.15;12.15;;;;;;;2.86;100.00;99173.28;5068678;28;20039;-54
2022/01/11 01:03:00;;;;;;;28.75;12.23;;;;;;;2.97;100.00;99175.13;5070525;28;20028;-55
2022/01/11 01:05:26;;;;;;;32.03;12.32;;;;;;;2.89;100.00;99178.47;5067310;28;20364;-54
2022/01/11 01:07:52;;;;;;;36.20;12.23;;;;;;;3.05;100.00;99183.75;5069345;28;20027;-56
2022/01/11 01:12:45;;;;;;;37.10;13.07;;;;;;;3.06;100.00;99183.78;5067236;28;20024;-56
2022/01/11 01:15:11;;;;;;;38.17;12.82;;;;;;;3.05;100.00;99184.66;5067298;28;20033;-55
2022/01/11 01:17:37;;;;;;;29.70;11.82;;;;;;;3.21;100.00;99184.75;5068604;28;20024;-53
2022/01/11 01:20:04;;;;;;;32.65;11.73;;;;;;;3.20;100.00;99189.06;5068585;28;20043;-55
2022/01/11 01:22:29;;;;;;;35.28;12.77;;;;;;;3.09;100.00;99178.66;5067754;28;20047;-54
2022/01/11 01:24:55;;;;;;;33.30;11.65;;;;;;;3.09;100.00;99185.53;5068490;28;20056;-53
2022/01/11 01:27:20;;;;;;;32.45;11.95;;;;;;;3.16;100.00;99187.31;5065618;28;20040;-54
2022/01/11 01:29:45;;;;;;;29.55;11.40;;;;;;;3.26;100.00;99181.34;5072576;28;20024;-55
2022/01/11 01:32:11;;;;;;;32.40;11.88;;;;;;;3.16;100.00;99184.72;5067198;28;20632;-54
2022/01/11 01:34:37;;;;;;;34.97;11.48;;;;;;;3.00;100.00;99186.31;5067138;28;20024;-54
2022/01/11 01:37:03;;;;;;;36.90;12.25;;;;;;;2.75;100.00;99190.38;5067047;28;20055;-54
2022/01/11 01:39:29;;;;;;;30.67;11.27;;;;;;;3.16;100.00;99181.28;5067263;28;20040;-55
2022/01/11 01:41:54;;;;;;;30.02;11.20;;;;;;;3.05;100.00;99183.75;5064676;28;20040;-53
2022/01/11 01:44:21;;;;;;;32.38;11.55;;;;;;;3.06;100.00;99190.66;5068320;28;20035;-54
2022/01/11 01:46:46;;;;;;;36.35;12.15;;;;;;;3.03;100.00;99198.34;5064771;28;20044;-55
2022/01/11 01:49:17;;;;;;;31.15;11.70;;;;;;;2.85;100.00;99191.34;5068650;28;20580;-55
2022/01/11 01:51:44;;;;;;;34.30;12.02;;;;;;;2.99;100.00;99194.03;5066070;28;20093;-54
2022/01/11 01:54:11;;;;;;;32.85;12.63;;;;;;;3.12;100.00;99189.84;5068217;28;20024;-53
2022/01/11 01:56:37;;;;;;;33.10;11.57;;;;;;;2.64;100.00;99194.56;5066472;28;20620;-53
2022/01/11 01:59:04;;;;;;;32.90;12.70;;;;;;;2.89;100.00;99193.94;5068858;28;20024;-54
2022/01/11 02:01:32;;;;;;;31.15;12.05;;;;;;;2.74;100.00;99193.81;5066920;28;20097;-54
2022/01/11 02:03:57;;;;;;;40.25;13.13;;;;;;;2.49;100.00;99192.69;5067002;28;20056;-55
2022/01/11 02:06:23;;;;;;;33.92;12.73;;;;;;;2.80;100.00;99199.03;5066936;28;20448;-53
2022/01/11 02:08:50;;;;;;;40.08;13.45;;;;;;;2.72;100.00;99198.09;5065724;28;20035;-55
2022/01/11 02:11:23;;;;;;;38.10;13.15;;;;;;;2.76;100.00;99194.69;5067023;28;20118;-53
2022/01/11 02:13:49;;;;;;;31.55;12.35;;;;;;;2.83;100.00;99198.16;5067463;28;20024;-53
2022/01/11 02:16:16;;;;;;;37.70;12.45;;;;;;;2.85;100.00;99202.50;5066452;28;20041;-53
2022/01/11 02:18:42;;;;;;;40.67;12.90;;;;;;;2.87;100.00;99205.09;5067477;28;20019;-55
2022/01/11 02:21:08;;;;;;;38.72;12.75;;;;;;;2.85;100.00;99212.81;5065517;28;20123;-54
2022/01/11 02:23:33;;;;;;;28.33;11.63;;;;;;;2.66;100.00;99203.16;5066913;28;20055;-54
2022/01/11 02:26:00;;;;;;;34.72;12.73;;;;;;;2.58;100.00;99209.97;5069118;28;20703;-53
2022/01/11 02:28:28;;;;;;;35.08;12.55;;;;;;;2.73;100.00;99207.53;5068258;28;20020;-53
2022/01/11 02:30:54;;;;;;;30.70;12.15;;;;;;;2.87;100.00;99213.69;5065524;28;20986;-53
2022/01/11 02:33:33;;;;;;;33.45;12.52;;;;;;;2.73;100.00;99211.84;5066910;28;20784;-54
2022/01/11 02:36:00;;;;;;;38.22;12.00;;;;;;;3.06;100.00;99211.28;5068220;28;20075;-54
2022/01/11 02:38:26;;;;;;;37.35;12.60;;;;;;;2.79;100.00;99209.31;5067905;28;20170;-55
2022/01/11 02:40:51;;;;;;;33.20;11.13;;;;;;;2.83;100.00;99219.69;5065555;28;20609;-54
2022/01/11 02:43:16;;;;;;;33.78;12.07;;;;;;;2.91;100.00;99212.00;5066417;28;20020;-55
2022/01/11 02:45:42;;;;;;;33.00;12.38;;;;;;;2.92;100.00;99220.59;5065752;28;20737;-55
2022/01/11 02:48:08;;;;;;;35.50;12.13;;;;;;;2.83;100.00;99214.53;5074735;28;20025;-54
2022/01/11 02:50:33;;;;;;;31.42;12.07;;;;;;;3.03;100.00;99216.41;5065355;28;20248;-54
2022/01/11 02:52:59;;;;;;;33.25;12.27;;;;;;;3.01;100.00;99218.09;5066386;28;20032;-54
2022/01/11 02:55:24;;;;;;;34.95;11.90;;;;;;;2.94;100.00;99211.16;5067058;28;20047;-54
2022/01/11 02:57:50;;;;;;;34.67;12.32;;;;;;;3.09;100.00;99213.91;5066535;28;20086;-55
2022/01/11 03:00:18;;;;;;;37.38;12.48;;;;;;;3.19;100.00;99213.09;5065484;28;20055;-54
2022/01/11 03:02:44;;;;;;;36.33;12.32;;;;;;;2.55;100.00;99217.66;5066760;28;20749;-54
2022/01/11 03:05:11;;;;;;;30.77;11.43;;;;;;;2.67;100.00;99215.22;5065496;28;20032;-54
2022/01/11 03:07:37;;;;;;;37.70;12.23;;;;;;;2.75;100.00;99216.13;5063944;28;20136;-55
2022/01/11 03:10:28;;;;;;;30.40;10.88;;;;;;;2.69;100.00;99216.09;5064556;28;20077;-53
2022/01/11 03:12:54;;;;;;;28.67;9.98;;;;;;;3.08;100.00;99207.00;5064675;28;20407;-55
2022/01/11 03:15:19;;;;;;;30.55;10.73;;;;;;;3.09;100.00;99207.00;5064534;28;20706;-54
2022/01/11 03:17:45;;;;;;;38.85;11.23;;;;;;;3.23;100.00;99207.09;5064171;28;20028;-55
2022/01/11 03:20:11;;;;;;;30.92;11.13;;;;;;;3.27;100.00;99206.31;5063277;28;20174;-54
2022/01/11 03:22:37;;;;;;;28.42;10.10;;;;;;;3.20;100.00;99208.84;5064301;28;20562;-53
2022/01/11 03:25:05;;;;;;;23.75;9.45;;;;;;;3.31;100.00;99209.78;5065667;28;20028;-55
2022/01/11 03:27:30;;;;;;;27.30;9.95;;;;;;;3.16;100.00;99209.63;5065135;28;20012;-53
2022/01/11 03:29:55;;;;;;;28.10;9.15;;;;;;;3.35;100.00;99208.94;5065486;28;20061;-54
2022/01/11 03:32:21;;;;;;;26.48;10.02;;;;;;;3.36;100.00;99214.94;5065198;28;20029;-54
2022/01/11 03:34:46;;;;;;;31.80;10.73;;;;;;;3.25;100.00;99209.72;5063850;28;20466;-54
2022/01/11 03:37:18;;;;;;;30.67;11.18;;;;;;;3.12;100.00;99220.78;5066567;28;20079;-55
2022/01/11 03:39:45;;;;;;;32.10;11.10;;;;;;;2.98;100.00;99223.22;5065196;28;20036;-54
2022/01/11 03:42:11;;;;;;;32.42;11.68;;;;;;;2.57;100.00;99227.13;5063780;28;20040;-55
2022/01/11 03:44:36;;;;;;;33.40;11.48;;;;;;;2.88;100.00;99228.28;5064968;28;20094;-53
2022/01/11 03:47:02;;;;;;;30.30;11.10;;;;;;;2.94;100.00;99224.03;5063770;28;20040;-54
2022/01/11 03:49:28;;;;;;;31.02;11.15;;;;;;;2.56;100.00;99221.97;5065627;28;20537;-54
2022/01/11 03:51:53;;;;;;;33.88;10.82;;;;;;;3.06;100.00;99221.59;5062570;28;20048;-53
2022/01/11 03:55:05;;;;;;;36.05;11.65;;;;;;;2.76;100.00;99220.47;5066774;28;20022;-55
2022/01/11 03:57:08;;;;;;;28.92;10.88;;;;;;;2.56;100.00;99225.41;5057975;28;20410;-54
2022/01/11 03:59:33;;;;;;;32.33;11.02;;;;;;;2.73;100.00;99225.56;5067458;28;20703;-54
2022/01/11 04:01:59;;;;;;;30.90;11.52;;;;;;;2.93;100.00;99224.91;5063323;28;20088;-54
2022/01/11 04:04:26;;;;;;;32.75;11.10;;;;;;;2.62;100.00;99230.59;5064915;28;20036;-55
2022/01/11 04:06:51;;;;;;;32.40;10.85;;;;;;;2.81;100.00;99231.69;5064464;28;20044;-55
2022/01/11 04:09:16;;;;;;;34.50;11.90;;;;;;;3.20;100.00;99224.31;5063257;28;20081;-55
2022/01/11 04:11:42;;;;;;;29.13;10.82;;;;;;;2.87;100.00;99224.00;5063224;28;20124;-54
2022/01/11 04:14:07;;;;;;;31.25;10.70;;;;;;;2.84;100.00;99231.69;5064519;28;20025;-53
2022/01/11 04:16:33;;;;;;;30.40;11.05;;;;;;;3.15;100.00;99229.41;5066309;28;20036;-55
2022/01/11 04:18:58;;;;;;;32.03;11.07;;;;;;;3.18;100.00;99231.13;5065696;28;20035;-54
2022/01/11 04:21:24;;;;;;;31.65;10.43;;;;;;;2.93;100.00;99230.91;5063870;28;20072;-55
2022/01/11 04:23:49;;;;;;;27.52;10.40;;;;;;;3.10;100.00;99228.50;5063525;28;20020;-54
2022/01/11 04:26:14;;;;;;;25.98;9.38;;;;;;;2.79;100.00;99225.63;5049092;28;20580;-54
2022/01/11 04:28:40;;;;;;;29.10;10.13;;;;;;;2.39;100.00;99239.78;5063139;28;20035;-54
2022/01/11 04:31:05;;;;;;;34.92;11.52;;;;;;;2.84;100.00;99234.28;5064301;28;20036;-54
2022/01/11 04:33:31;;;;;;;28.88;10.65;;;;;;;2.64;100.00;99240.94;5063731;28;20033;-54
2022/01/11 04:35:58;;;;;;;28.20;10.25;;;;;;;3.04;100.00;99241.34;5065225;28;20040;-54
2022/01/11 04:38:27;;;;;;;31.58;10.73;;;;;;;3.17;100.00;99235.44;5066243;28;20028;-54
2022/01/11 04:40:53;;;;;;;27.55;10.10;;;;;;;2.85;100.00;99242.88;5065446;28;20042;-54
2022/01/11 04:43:18;;;;;;;27.90;10.32;;;;;;;2.76;100.00;99248.81;5065446;28;20028;-53
2022/01/11 04:45:44;;;;;;;31.73;10.45;;;;;;;2.98;100.00;99244.72;5050891;28;20135;-55
2022/01/11 04:48:09;;;;;;;30.55;10.32;;;;;;;2.58;100.00;99256.34;5063985;28;20028;-54
2022/01/11 04:50:36;;;;;;;28.83;10.40;;;;;;;2.57;100.00;99257.16;5062666;28;20032;-54
2022/01/11 04:53:02;;;;;;;30.08;10.85;;;;;;;2.79;100.00;99253.97;5063720;28;20080;-55
2022/01/11 04:55:27;;;;;;;28.77;10.43;;;;;;;2.69;100.00;99262.47;5065152;28;20067;-53
2022/01/11 04:57:53;;;;;;;26.52;10.05;;;;;;;2.85;100.00;99256.63;5064255;28;20034;-54
2022/01/11 05:00:21;;;;;;;33.97;10.40;;;;;;;2.66;100.00;99265.00;5064447;28;20111;-55
2022/01/11 05:02:47;;;;;;;30.67;10.35;;;;;;;2.67;100.00;99265.03;5066087;28;20016;-54
2022/01/11 05:05:14;;;;;;;26.75;10.00;;;;;;;2.72;100.00;99262.50;5064852;28;20346;-54
2022/01/11 05:07:40;;;;;;;33.35;10.68;;;;;;;2.81;100.00;99272.03;5063808;28;20584;-54
2022/01/11 05:10:06;;;;;;;38.90;12.07;;;;;;;3.04;100.00;99265.41;5066882;28;20089;-53
2022/01/11 05:12:32;;;;;;;33.72;11.13;;;;;;;2.72;100.00;99272.81;5074516;28;20051;-55
2022/01/11 05:14:57;;;;;;;34.92;11.30;;;;;;;2.75;100.00;99262.53;5069055;28;20036;-56
2022/01/11 05:17:23;;;;;;;31.98;11.27;;;;;;;2.96;100.00;99271.31;5066930;28;20036;-54
2022/01/11 05:19:48;;;;;;;34.95;11.82;;;;;;;3.08;100.00;99268.88;5066508;28;20036;-54
2022/01/11 05:22:14;;;;;;;28.48;10.95;;;;;;;2.97;100.00;99278.22;5066326;28;20173;-54
2022/01/11 05:24:39;;;;;;;31.05;11.07;;;;;;;2.85;100.00;99273.81;5073536;28;20117;-54
2022/01/11 05:27:05;;;;;;;33.80;11.60;;;;;;;2.99;100.00;99272.22;5069818;28;20645;-55
2022/01/11 05:29:31;;;;;;;36.08;11.13;;;;;;;2.98;100.00;99269.63;5066348;28;20028;-53
2022/01/11 05:31:58;;;;;;;35.53;12.05;;;;;;;3.08;100.00;99274.03;5067062;28;20374;-54
2022/01/11 05:34:24;;;;;;;37.17;11.73;;;;;;;3.05;100.00;99276.56;5066748;28;20869;-53
2022/01/11 05:36:50;;;;;;;37.10;12.55;;;;;;;2.67;100.00;99277.03;5066876;28;20040;-54
2022/01/11 05:39:15;;;;;;;33.20;11.40;;;;;;;2.56;100.00;99281.22;5067997;28;20066;-55
2022/01/11 05:41:40;;;;;;;36.17;12.00;;;;;;;2.73;100.00;99283.97;5066342;28;20089;-56
2022/01/11 05:44:06;;;;;;;35.35;11.77;;;;;;;2.65;100.00;99289.06;5069010;28;20058;-54
2022/01/11 05:46:31;;;;;;;41.47;11.77;;;;;;;2.93;100.00;99284.19;5066908;28;20135;-54
2022/01/11 05:48:57;;;;;;;34.67;11.25;;;;;;;2.71;100.00;99302.00;5066034;28;20108;-54
2022/01/11 05:51:25;;;;;;;31.67;11.60;;;;;;;2.93;100.00;99297.09;5068679;28;20079;-54
2022/01/11 05:53:50;;;;;;;33.17;11.27;;;;;;;2.74;100.00;99309.75;5067285;28;20032;-53
2022/01/11 05:56:15;;;;;;;29.23;10.43;;;;;;;2.76;100.00;99310.66;5065781;28;20024;-54
2022/01/11 05:58:40;;;;;;;34.25;11.85;;;;;;;2.85;100.00;99310.75;5069678;28;20131;-53
2022/01/11 06:01:06;;;;;;;38.92;12.75;;;;;;;2.93;100.00;99318.56;5067619;28;20761;-56
2022/01/11 06:03:31;;;;;;;32.85;12.25;;;;;;;2.94;100.00;99320.31;5066314;28;20783;-55
2022/01/11 06:05:57;;;;;;;27.77;11.25;;;;;;;2.66;100.00;99319.09;5070609;28;20115;-53
2022/01/11 06:08:22;;;;;;;26.85;11.38;;;;;;;2.60;100.00;99325.03;5071981;28;20047;-54
2022/01/11 06:10:48;;;;;;;33.88;11.65;;;;;;;2.63;100.00;99325.09;5068692;28;20041;-53
2022/01/11 06:13:13;;;;;;;35.80;12.35;;;;;;;2.82;100.00;99321.00;5069265;28;20033;-55
2022/01/11 06:15:39;;;;;;;30.58;11.38;;;;;;;2.89;100.00;99322.81;5071560;28;20683;-54
2022/01/11 06:18:05;;;;;;;37.72;11.63;;;;;;;2.82;100.00;99321.00;5071584;28;20115;-54
2022/01/11 06:20:31;;;;;;;34.13;11.40;;;;;;;2.82;100.00;99321.00;5069568;28;20040;-54
2022/01/11 06:22:57;;;;;;;31.98;11.48;;;;;;;2.67;100.00;99326.84;5071319;28;20032;-54
2022/01/11 06:25:23;;;;;;;27.95;11.45;;;;;;;2.59;100.00;99327.59;5070042;28;20045;-53
2022/01/11 06:27:49;;;;;;;28.20;11.52;;;;;;;2.73;100.00;99335.50;5069870;28;20024;-53
2022/01/11 06:30:15;;;;;;;30.95;11.20;;;;;;;2.80;100.00;99334.75;5068676;28;20463;-55
2022/01/11 06:32:43;;;;;;;33.03;11.88;;;;;;;2.53;100.00;99343.00;5069998;28;20020;-55
2022/01/11 06:35:10;;;;;;;36.72;11.75;;;;;;;2.86;100.00;99348.53;5073735;28;20020;-54
2022/01/11 06:37:35;;;;;;;33.90;12.85;;;;;;;3.09;100.00;99350.53;5070130;28;20029;-54
2022/01/11 06:40:03;;;;;;;34.08;12.50;;;;;;;3.26;100.00;99348.13;5068434;28;20027;-54
2022/01/11 06:42:30;;;;;;;32.10;11.70;;;;;;;2.99;100.00;99348.69;5066931;28;20041;-53
2022/01/11 06:44:56;;;;;;;33.05;12.27;;;;;;;2.72;100.00;99344.97;5069746;28;20031;-54
2022/01/11 06:47:21;;;;;;;34.47;12.55;;;;;;;2.70;100.00;99352.66;5068042;28;20040;-55
2022/01/11 06:49:47;;;;;;;30.77;12.25;;;;;;;2.93;100.00;99356.38;5077357;28;20077;-53
2022/01/11 06:52:12;;;;;;;29.83;12.02;;;;;;;2.83;100.00;99357.94;5066704;28;20036;-56
2022/01/11 06:54:38;;;;;;;35.45;12.88;;;;;;;2.74;100.00;99363.00;5067050;28;20031;-54
2022/01/11 06:57:03;;;;;;;35.33;12.27;;;;;;;2.38;100.00;99367.69;5066397;28;20454;-54
2022/01/11 06:59:29;;;;;;;34.80;12.35;;;;;;;2.74;100.00;99363.88;5068368;28;20355;-54
2022/01/11 07:01:54;;;;;;;35.38;12.50;;;;;;;2.83;100.00;99374.28;5068333;28;20520;-55
2022/01/11 07:04:19;;;;;;;28.77;10.30;;;;;;;3.00;100.00;99373.63;5066529;28;20134;-53
2022/01/11 07:06:45;;;;;;;32.78;11.73;;;;;;;2.93;100.00;99374.41;5069414;28;20040;-54
2022/01/11 07:09:10;;;;;;;31.10;10.32;;;;;;;3.15;100.00;99376.38;5084491;28;20051;-55
2022/01/11 07:11:36;;;;;;;34.80;12.23;;;;;;;3.25;100.00;99379.91;5068246;28;20040;-54
2022/01/11 07:14:03;;;;;;;33.08;11.88;;;;;;;3.24;100.00;99384.19;5068865;28;20078;-53
2022/01/11 07:16:29;;;;;;;29.63;10.95;;;;;;;3.32;100.00;99373.09;5066027;28;20083;-54
2022/01/11 07:18:54;;;;;;;31.80;12.77;;;;;;;3.27;100.00;99386.81;5037909;28;20024;-55
2022/01/11 07:21:20;;;;;;;34.80;12.32;;;;;;;3.16;100.00;99385.84;5066846;28;20240;-54
2022/01/11 07:23:46;;;;;;;29.92;11.68;;;;;;;3.31;100.00;99386.84;5068068;28;20063;-53
2022/01/11 07:26:11;;;;;;;36.30;12.20;;;;;;;3.09;100.00;99390.06;5067269;28;20036;-54
2022/01/11 07:28:37;;;;;;;35.25;12.32;;;;;;;2.75;100.00;99399.09;5069341;28;20051;-55
2022/01/11 07:31:03;;;;;;;29.35;11.35;;;;;;;3.05;100.00;99401.19;5067419;28;20059;-54
2022/01/11 07:33:29;;;;;;;30.55;11.90;;;;;;;3.32;100.00;99404.06;5067614;28;20171;-53
2022/01/11 07:35:54;;;;;;;32.63;11.80;;;;;;;3.55;100.00;99412.00;5069292;28;20787;-54
2022/01/11 07:38:20;;;;;;;32.78;12.13;;;;;;;3.33;100.00;99416.09;5069252;28;20034;-55
2022/01/11 07:40:45;;;;;;;35.00;12.23;;;;;;;3.31;100.00;99422.94;5066668;28;20040;-54
2022/01/11 07:43:10;;;;;;;31.67;12.27;;;;;;;3.49;100.00;99423.13;5068264;28;20604;-54
2022/01/11 07:45:36;;;;;;;34.75;12.20;;;;;;;3.39;100.00;99421.31;5069117;28;20048;-53
2022/01/11 07:48:01;;;;;;;30.88;11.93;;;;;;;3.12;100.00;99422.75;5067912;28;20028;-54
2022/01/11 07:50:27;;;;;;;32.45;12.05;;;;;;;3.22;100.00;99426.31;5068107;28;20120;-54
2022/01/11 07:52:52;;;;;;;38.45;12.27;;;;;;;3.33;100.00;99431.56;5067152;28;20026;-54
2022/01/11 07:55:19;;;;;;;39.08;12.55;;;;;;;3.53;100.00;99430.09;5067335;28;20430;-53
2022/01/11 07:57:44;;;;;;;38.50;13.23;;;;;;;3.51;100.00;99436.94;5069520;28;20024;-54
2022/01/11 08:00:10;;;;;;;37.10;13.23;;;;;;;3.35;100.00;99430.75;5068183;28;20059;-53
2022/01/11 08:02:37;;;;;;;33.03;12.70;;;;;;;3.44;100.00;99430.00;5067095;28;20175;-54
2022/01/11 08:05:04;;;;;;;32.63;12.13;;;;;;;3.04;100.00;99439.84;5067875;28;20026;-53
2022/01/11 08:07:30;;;;;;;28.00;11.75;;;;;;;3.38;100.00;99440.22;5068694;28;20022;-55
2022/01/11 08:09:56;;;;;;;36.22;12.73;;;;;;;3.28;100.00;99449.56;5067400;28;20031;-53
2022/01/11 08:12:21;;;;;;;33.47;12.85;;;;;;;3.48;100.00;99450.66;5067695;28;20044;-54
2022/01/11 08:14:48;;;;;;;31.00;12.50;;;;;;;3.32;100.00;99455.63;5067060;28;20047;-54
2022/01/11 08:17:14;;;;;;;30.65;12.32;;;;;;;3.62;100.00;99455.97;5067020;28;20048;-54
2022/01/11 08:19:40;;;;;;;37.65;12.60;;;;;;;3.66;100.00;99452.56;5068627;28;20027;-54
2022/01/11 08:22:05;;;;;;;33.20;12.55;;;;;;;3.83;100.00;99450.16;5066772;28;20516;-54
2022/01/11 08:24:31;;;;;;;32.92;13.05;;;;;;;3.97;100.00;99447.72;5066425;28;20028;-56
2022/01/11 08:26:56;;;;;;;37.40;13.05;;;;;;;4.19;100.00;99443.59;5067375;28;20064;-54
2022/01/11 08:29:22;;;;;;;30.33;11.90;;;;;;;4.02;100.00;99451.16;5069119;28;20099;-53
2022/01/11 08:31:49;;;;;;;31.25;12.27;;;;;;;4.18;100.00;99449.59;5067805;28;20040;-54
2022/01/11 08:34:15;;;;;;;30.83;11.05;;;;;;;4.14;100.00;99452.16;5067028;28;20024;-54
2022/01/11 08:36:42;;;;;;;25.92;11.30;;;;;;;4.50;100.00;99448.09;5070338;28;20032;-54
2022/01/11 08:39:09;;;;;;;30.55;11.50;;;;;;;4.49;100.00;99448.97;5069856;28;20054;-54
2022/01/11 08:41:34;;;;;;;29.20;12.38;;;;;;;4.67;100.00;99440.44;5067708;28;20032;-54
2022/01/11 08:43:59;;;;;;;29.30;11.18;;;;;;;4.72;100.00;99443.94;5068311;28;20078;-54
2022/01/11 08:46:25;;;;;;;25.75;10.50;;;;;;;4.88;100.00;99434.53;5072364;28;20499;-54
2022/01/11 08:48:50;;;;;;;26.90;11.02;;;;;;;4.59;100.00;99430.91;5070712;28;20595;-53
2022/01/11 08:51:15;;;;;;;29.25;11.50;;;;;;;4.38;100.00;99444.56;5071695;28;20127;-54
2022/01/11 08:53:41;;;;;;;24.02;9.77;;;;;;;4.96;100.00;99450.94;5074050;28;20028;-54
2022/01/11 08:56:07;;;;;;;26.35;10.30;;;;;;;4.79;100.00;99441.38;5069038;28;20040;-54
2022/01/11 08:58:32;;;;;;;24.60;9.30;;;;;;;4.60;100.00;99445.59;5072832;28;20032;-54
2022/01/11 09:00:58;;;;;;;26.27;9.85;;;;;;;5.12;100.00;99444.13;5072290;28;20375;-53
2022/01/11 09:03:23;;;;;;;23.35;9.63;;;;;;;5.00;100.00;99444.94;5071668;28;20063;-55
2022/01/11 09:05:51;;;;;;;29.15;10.68;;;;;;;4.99;100.00;99443.22;5070665;28;20461;-56
2022/01/11 09:08:17;;;;;;;28.13;10.13;;;;;;;5.03;100.00;99455.28;5071782;28;20062;-54
2022/01/11 09:10:42;;;;;;;24.13;9.20;;;;;;;4.79;100.00;99458.63;5069043;28;20579;-55
2022/01/11 09:13:08;;;;;;;20.55;8.15;;;;;;;5.20;100.00;99453.66;5077105;28;20024;-55
2022/01/11 09:15:34;;;;;;;18.50;7.25;;;;;;;5.26;100.00;99451.97;5070159;28;20049;-54
2022/01/11 09:18:00;;;;;;;16.52;7.25;;;;;;;5.31;100.00;99450.22;5071510;28;20037;-53
2022/01/11 09:20:26;;;;;;;19.70;7.47;;;;;;;5.14;100.00;99463.97;5076775;28;20457;-54
2022/01/11 09:22:52;;;;;;;19.35;6.78;;;;;;;5.38;100.00;99452.84;5069581;28;20101;-55
2022/01/11 09:25:17;;;;;;;19.13;7.85;;;;;;;5.24;100.00;99453.66;5069215;28;20024;-54
2022/01/11 09:27:43;;;;;;;22.40;8.82;;;;;;;5.20;100.00;99464.00;5069872;28;20452;-55
2022/01/11 09:30:12;;;;;;;19.88;6.97;;;;;;;5.77;100.00;99464.19;5067583;28;20305;-54
2022/01/11 09:32:38;;;;;;;19.20;7.25;;;;;;;5.22;100.00;99462.28;5067493;28;20416;-55
2022/01/11 09:35:06;;;;;;;16.13;6.50;;;;;;;5.54;100.00;99474.47;5068827;28;20077;-56
2022/01/11 09:37:31;;;;;;;16.50;6.45;;;;;;;5.44;100.00;99462.38;5070849;28;20028;-55
2022/01/11 09:39:57;;;;;;;20.23;7.43;;;;;;;5.06;100.00;99470.84;5070592;28;20028;-54
2022/01/11 09:42:23;;;;;;;21.15;7.82;;;;;;;5.09;100.00;99473.44;5069115;28;20047;-55
2022/01/11 09:44:49;;;;;;;19.13;7.50;;;;;;;5.22;100.00;99467.47;5069397;28;20627;-54
2022/01/11 09:47:15;;;;;;;17.85;7.05;;;;;;;5.34;100.00;99465.78;5069580;28;20247;-54
2022/01/11 09:49:41;;;;;;;19.83;7.25;;;;;;;5.46;100.00;99460.66;5071393;28;20038;-55
2022/01/11 09:52:09;;;;;;;17.25;6.95;;;;;;;5.20;100.00;99470.88;5070027;28;20075;-53
2022/01/11 09:54:37;;;;;;;17.65;6.68;;;;;;;5.44;100.00;99467.53;5071229;28;20016;-54
2022/01/11 09:57:03;;;;;;;16.65;6.75;;;;;;;5.32;100.00;99470.09;5070897;28;20066;-54
2022/01/11 09:59:30;;;;;;;15.10;5.97;;;;;;;5.31;100.00;99477.00;5068174;28;20093;-54
2022/01/11 10:01:55;;;;;;;18.45;6.60;;;;;;;5.26;100.00;99477.84;5068613;28;20898;-54
2022/01/11 10:04:26;;;;;;;16.98;6.20;;;;;;;5.81;100.00;99475.41;5077396;28;20024;-55
2022/01/11 10:06:55;;;;;;;16.00;6.03;;;;;;;5.82;100.00;99477.13;5071222;28;20047;-55
2022/01/11 10:09:22;;;;;;;18.58;5.63;;;;;;;5.50;100.00;99475.31;5070383;28;20028;-53
2022/01/11 10:11:50;;;;;;;15.13;5.95;;;;;;;5.72;100.00;99484.00;5067661;28;20063;-56
2022/01/11 10:14:17;;;;;;;13.73;5.35;;;;;;;5.69;100.00;99481.41;5070494;28;20052;-55
2022/01/11 10:16:42;;;;;;;13.18;5.03;;;;;;;5.77;100.00;99486.59;5066161;28;20039;-53
2022/01/11 10:19:19;;;;;;;11.65;4.85;;;;;;;5.72;100.00;99483.16;5070849;28;20055;-54
2022/01/11 10:21:47;;;;;;;12.75;4.85;;;;;;;5.41;100.00;99478.72;5068746;28;20089;-53
2022/01/11 10:24:35;;;;;;;13.23;4.93;;;;;;;6.01;100.00;99484.94;5068586;28;20024;-53
2022/01/11 10:27:22;;;;;;;11.75;4.15;;;;;;;6.13;100.00;99485.81;5068624;28;20049;-54
2022/01/11 10:29:50;;;;;;;14.40;4.70;;;;;;;6.29;100.00;99486.69;5069306;28;20042;-53
2022/01/11 10:32:24;;;;;;;12.20;4.70;;;;;;;5.55;100.00;99481.38;5067952;28;20105;-55
2022/01/11 10:34:53;;;;;;;13.25;4.50;;;;;;;5.97;100.00;99469.41;5069152;28;20033;-54
2022/01/11 10:37:49;;;;;;;11.57;4.00;;;;;;;5.72;100.00;99473.66;5068451;28;20033;-53
2022/01/11 10:40:17;;;;;;;12.57;4.30;;;;;;;6.34;100.00;99468.53;5065216;28;20151;-54
2022/01/11 10:42:51;;;;;;;11.07;4.05;;;;;;;6.18;100.00;99467.69;5069449;28;20028;-53
2022/01/11 10:45:18;;;;;;;11.68;4.03;;;;;;;6.57;100.00;99471.13;5078020;28;20032;-53
2022/01/11 10:47:47;;;;;;;11.57;3.90;;;;;;;6.15;100.00;99472.88;5071085;28;20875;-52
2022/01/11 10:50:27;;;;;;;10.30;3.65;;;;;;;5.84;95.68;99472.78;5067167;28;20028;-54
2022/01/11 10:52:53;;;;;;;9.70;3.30;;;;;;;5.85;95.34;99478.88;5070994;28;20042;-55
2022/01/11 10:55:22;;;;;;;7.82;2.83;;;;;;;5.84;86.12;99477.97;5067254;28;20035;-54
2022/01/11 10:57:59;;;;;;;9.07;2.92;;;;;;;5.81;80.97;99480.59;5067785;28;20035;-54
2022/01/11 11:00:28;;;;;;;13.23;3.63;;;;;;;6.29;83.54;99480.66;5068635;28;20638;-54
2022/01/11 11:03:00;;;;;;;8.43;2.80;;;;;;;6.17;82.25;99478.91;5070221;28;20114;-53
2022/01/11 11:06:07;;;;;;;10.43;3.10;;;;;;;6.61;78.93;99472.84;5072070;28;20698;-54
2022/01/11 11:08:38;;;;;;;8.77;2.63;;;;;;;6.53;76.60;99474.59;5024852;28;20040;-53
2022/01/11 11:11:20;;;;;;;8.77;2.78;;;;;;;6.37;73.04;99469.41;5067764;28;20074;-52
2022/01/11 11:13:47;;;;;;;;;;;;;;;6.47;77.70;99472.88;5070188;28;20528;-53
2022/01/11 11:16:21;;;;;;;8.52;2.70;;;;;;;5.85;78.12;99468.50;5066114;28;19916;-54
2022/01/11 11:18:53;;;;;;;8.55;2.70;;;;;;;5.73;75.13;99469.31;5069448;28;20059;-54
2022/01/11 11:21:23;;;;;;;11.27;3.28;;;;;;;5.97;74.48;99466.81;5068294;28;20044;-54
2022/01/11 11:24:00;;;;;;;9.88;2.95;;;;;;;5.96;77.86;99466.81;5070470;28;20481;-54
2022/01/11 11:26:31;;;;;;;12.45;3.75;;;;;;;6.38;77.58;99475.47;5069581;28;20033;-53